Terminal Aerodrome Forecast
Issued by NWS

Home | Current Version | Previous Version | Text Only | Print | Product List | Glossary On
Versions: 1 2 3 4 5 6 7 8 9 10 11 12 13 14 15 16 17 18 19 20 21 22 23 24
000
FTUS45 KGGW 272320
TAFGDV
TAF
KGDV 272320Z 2800/2824 10007KT P6SM BKN070
     FM281000 03006KT P6SM BKN070
     FM281200 02005KT P6SM BKN020
     FM281600 03006KT P6SM BKN035
     FM282100 01006KT P6SM VCSH BKN070=

USA.gov is the U.S. government's official web portal to all federal, state and local government web resources and services.